createdAt,value
2018-10-01T00:01:41.795Z,8.50
2018-10-01T00:04:09.976Z,8.50
2018-10-01T00:06:38.239Z,8.50
2018-10-01T00:09:07.695Z,8.50
2018-10-01T00:11:35.940Z,8.50
2018-10-01T00:14:04.136Z,8.50
2018-10-01T00:16:32.341Z,8.50
2018-10-01T00:19:00.506Z,8.50
2018-10-01T00:21:34.579Z,8.40
2018-10-01T00:24:02.870Z,8.40
2018-10-01T00:26:31.714Z,8.40
2018-10-01T00:28:59.892Z,8.40
2018-10-01T00:31:28.098Z,8.30
2018-10-01T00:33:56.510Z,8.20
2018-10-01T00:36:24.723Z,8.20
2018-10-01T00:38:52.974Z,8.10
2018-10-01T00:41:21.142Z,8.10
2018-10-01T00:43:49.398Z,8.00
2018-10-01T00:46:17.541Z,8.00
2018-10-01T00:48:45.744Z,8.00
2018-10-01T00:51:13.973Z,7.90
2018-10-01T00:53:42.112Z,7.90
2018-10-01T00:56:10.330Z,7.90
2018-10-01T00:58:38.538Z,7.90
2018-10-01T01:01:07.032Z,7.80
2018-10-01T01:03:35.185Z,7.80
2018-10-01T01:06:03.804Z,7.80
2018-10-01T01:08:31.937Z,7.80
2018-10-01T01:11:00.368Z,7.70
2018-10-01T01:13:28.699Z,7.80
2018-10-01T01:15:56.876Z,7.80
2018-10-01T01:18:25.259Z,7.80
2018-10-01T01:20:53.420Z,7.80
2018-10-01T01:23:21.755Z,7.90
2018-10-01T01:25:51.995Z,8.00
2018-10-01T01:28:20.150Z,8.10
2018-10-01T01:30:48.321Z,8.10
2018-10-01T01:33:16.450Z,8.20
2018-10-01T01:35:44.861Z,8.20
2018-10-01T01:38:13.063Z,8.20
2018-10-01T01:40:41.238Z,8.20
2018-10-01T01:43:09.657Z,8.20
2018-10-01T01:45:37.887Z,8.30
2018-10-01T01:48:06.363Z,8.20
2018-10-01T01:50:34.558Z,8.30
2018-10-01T01:53:07.724Z,8.30
2018-10-01T01:55:35.893Z,8.40
2018-10-01T01:58:04.051Z,8.40
2018-10-01T02:00:32.307Z,8.50
2018-10-01T02:03:00.492Z,8.50
2018-10-01T02:05:28.745Z,8.60
2018-10-01T02:07:56.996Z,8.60
2018-10-01T02:10:25.228Z,8.60
2018-10-01T02:12:53.489Z,8.60
2018-10-01T02:15:21.770Z,8.60
2018-10-01T02:17:49.944Z,8.60
2018-10-01T02:20:18.130Z,8.60
2018-10-01T02:22:46.475Z,8.60
2018-10-01T02:25:14.640Z,8.60
2018-10-01T02:27:42.896Z,8.60
2018-10-01T02:30:11.071Z,8.60
2018-10-01T02:32:39.233Z,8.60
2018-10-01T02:35:07.436Z,8.50
2018-10-01T02:37:35.629Z,8.50
2018-10-01T02:40:04.084Z,8.40
2018-10-01T02:42:32.269Z,8.40
2018-10-01T02:45:00.423Z,8.30
2018-10-01T02:47:28.546Z,8.30
2018-10-01T02:49:56.738Z,8.30
2018-10-01T02:52:30.677Z,8.20
2018-10-01T02:54:59.124Z,8.10
2018-10-01T02:57:27.300Z,8.00
2018-10-01T02:59:55.438Z,8.00
2018-10-01T03:02:24.012Z,7.90
2018-10-01T03:04:52.275Z,7.80
2018-10-01T03:07:20.392Z,7.70
2018-10-01T03:09:48.560Z,7.50
2018-10-01T03:12:16.733Z,7.50
2018-10-01T03:14:44.890Z,7.40
2018-10-01T03:17:13.135Z,7.30
2018-10-01T03:19:41.323Z,7.30
2018-10-01T03:22:09.437Z,7.30
2018-10-01T03:24:37.738Z,7.20
2018-10-01T03:27:05.909Z,7.20
2018-10-01T03:29:34.161Z,7.20
2018-10-01T03:32:02.401Z,7.10
2018-10-01T03:34:30.675Z,7.10
2018-10-01T03:36:58.938Z,7.00
2018-10-01T03:39:27.148Z,7.00
2018-10-01T03:41:55.343Z,7.00
2018-10-01T03:44:24.462Z,6.90
2018-10-01T03:46:52.636Z,6.90
2018-10-01T03:49:20.907Z,6.80
2018-10-01T03:51:49.195Z,6.80
2018-10-01T03:54:17.546Z,6.70
2018-10-01T03:56:45.678Z,6.70
2018-10-01T03:59:13.910Z,6.70
2018-10-01T04:01:48.018Z,6.70
2018-10-01T04:04:16.464Z,6.70
2018-10-01T04:06:44.684Z,6.70
2018-10-01T04:09:12.906Z,6.70
2018-10-01T04:11:41.079Z,6.60
2018-10-01T04:14:09.302Z,6.50
2018-10-01T04:16:37.434Z,6.50
2018-10-01T04:19:05.636Z,6.50
2018-10-01T04:21:33.804Z,6.40
2018-10-01T04:24:01.998Z,6.50
2018-10-01T04:26:30.152Z,6.40
2018-10-01T04:28:58.368Z,6.30
2018-10-01T04:31:26.552Z,6.30
2018-10-01T04:33:54.916Z,6.40
2018-10-01T04:36:23.082Z,6.40
2018-10-01T04:38:51.302Z,6.30
2018-10-01T04:41:19.546Z,6.30
2018-10-01T04:43:47.824Z,6.30
2018-10-01T04:46:16.029Z,6.30
2018-10-01T04:48:44.158Z,6.30
2018-10-01T04:51:12.362Z,6.30
2018-10-01T04:53:40.442Z,6.30
2018-10-01T04:56:08.654Z,6.30
2018-10-01T04:58:37.088Z,6.30
2018-10-01T05:01:05.506Z,6.30
2018-10-01T05:03:33.637Z,6.30
2018-10-01T05:06:01.888Z,6.30
2018-10-01T05:08:30.075Z,6.30
2018-10-01T05:10:58.512Z,6.30
2018-10-01T05:13:26.700Z,6.30
2018-10-01T05:15:54.887Z,6.30
2018-10-01T05:18:23.003Z,6.40
2018-10-01T05:20:51.123Z,6.40
2018-10-01T05:23:19.281Z,6.40
2018-10-01T05:25:47.651Z,6.50
2018-10-01T05:28:16.115Z,6.50
2018-10-01T05:30:44.329Z,6.60
2018-10-01T05:33:12.499Z,6.60
2018-10-01T05:35:40.893Z,6.70
2018-10-01T05:38:09.012Z,6.70
2018-10-01T05:40:37.485Z,6.80
2018-10-01T05:43:05.771Z,6.80
2018-10-01T05:45:34.185Z,6.90
2018-10-01T05:48:02.292Z,7.00
2018-10-01T05:50:30.594Z,7.10
2018-10-01T05:52:58.722Z,7.30
2018-10-01T05:55:26.999Z,7.30
2018-10-01T05:57:55.210Z,7.40
2018-10-01T06:00:23.452Z,7.50
2018-10-01T06:02:51.676Z,7.60
2018-10-01T06:05:19.850Z,7.60
2018-10-01T06:07:48.026Z,7.70
2018-10-01T06:10:16.263Z,7.80
2018-10-01T06:12:45.317Z,7.90
2018-10-01T06:15:13.552Z,8.00
2018-10-01T06:17:41.779Z,8.10
2018-10-01T06:20:10.628Z,8.30
2018-10-01T06:22:39.034Z,8.40
2018-10-01T06:25:07.376Z,8.60
2018-10-01T06:27:36.519Z,8.70
2018-10-01T06:30:04.772Z,8.80
2018-10-01T06:32:32.993Z,9.00
2018-10-01T06:35:02.213Z,9.10
2018-10-01T06:37:30.493Z,9.20
2018-10-01T06:39:58.729Z,9.20
2018-10-01T06:42:26.829Z,9.30
2018-10-01T06:44:54.987Z,9.50
2018-10-01T06:47:23.285Z,9.70
2018-10-01T06:49:51.730Z,9.90
2018-10-01T06:52:19.900Z,10.00
2018-10-01T06:54:48.451Z,10.00
2018-10-01T06:57:16.640Z,10.10
2018-10-01T06:59:44.796Z,10.10
2018-10-01T07:02:13.088Z,10.20
2018-10-01T07:04:41.393Z,10.20
2018-10-01T07:07:09.594Z,10.20
2018-10-01T07:09:38.592Z,10.20
2018-10-01T07:12:06.772Z,10.40
2018-10-01T07:14:34.901Z,10.40
2018-10-01T07:17:03.162Z,10.40
2018-10-01T07:19:31.231Z,10.50
2018-10-01T07:21:59.424Z,10.50
2018-10-01T07:24:27.796Z,10.50
2018-10-01T07:26:55.969Z,10.60
2018-10-01T07:29:24.223Z,10.70
2018-10-01T07:31:52.459Z,10.70
2018-10-01T07:34:20.732Z,10.80
2018-10-01T07:36:48.957Z,10.80
2018-10-01T07:39:17.243Z,11.00
2018-10-01T07:41:45.569Z,11.10
2018-10-01T07:44:13.787Z,11.20
2018-10-01T07:46:42.021Z,11.50
2018-10-01T07:49:10.164Z,11.80
2018-10-01T07:51:38.463Z,11.90
2018-10-01T07:54:07.019Z,12.10
2018-10-01T07:56:35.228Z,12.30
2018-10-01T07:59:03.567Z,12.50
2018-10-01T08:01:31.817Z,12.50
2018-10-01T08:04:00.104Z,12.40
2018-10-01T08:06:28.363Z,12.40
2018-10-01T08:08:56.596Z,12.50
2018-10-01T08:11:24.912Z,12.50
2018-10-01T08:13:53.079Z,12.60
2018-10-01T08:16:21.332Z,12.60
2018-10-01T08:18:49.596Z,12.70
2018-10-01T08:21:17.824Z,13.10
2018-10-01T08:23:46.224Z,13.50
2018-10-01T08:26:15.049Z,13.70
2018-10-01T08:28:43.158Z,14.00
2018-10-01T08:31:11.456Z,14.10
2018-10-01T08:33:41.962Z,14.30
2018-10-01T08:36:10.286Z,14.30
2018-10-01T08:38:38.591Z,14.40
2018-10-01T08:41:06.856Z,14.50
2018-10-01T08:43:35.186Z,14.60
2018-10-01T08:46:03.489Z,15.00
2018-10-01T08:48:33.785Z,15.20
2018-10-01T08:51:07.548Z,15.20
2018-10-01T08:53:41.887Z,15.50
2018-10-01T08:56:10.429Z,15.80
2018-10-01T08:58:38.659Z,16.00
2018-10-01T09:01:07.030Z,16.10
2018-10-01T09:03:35.164Z,15.90
2018-10-01T09:06:03.425Z,16.00
2018-10-01T09:08:31.614Z,15.90
2018-10-01T09:10:59.812Z,15.80
2018-10-01T09:13:28.045Z,15.80
2018-10-01T09:15:56.902Z,15.80
2018-10-01T09:18:25.787Z,16.10
2018-10-01T09:20:53.990Z,16.30
2018-10-01T09:23:22.877Z,16.50
2018-10-01T09:25:51.041Z,16.70
2018-10-01T09:28:19.199Z,16.60
2018-10-01T09:30:47.477Z,16.20
2018-10-01T09:33:15.789Z,16.20
2018-10-01T09:35:44.005Z,16.20
2018-10-01T09:38:12.214Z,15.90
2018-10-01T09:40:40.428Z,16.00
2018-10-01T09:43:08.674Z,16.40
2018-10-01T09:45:36.943Z,16.80
2018-10-01T09:48:05.235Z,17.60
2018-10-01T09:50:33.454Z,18.60
2018-10-01T09:53:01.682Z,19.30
2018-10-01T09:55:29.929Z,19.50
2018-10-01T09:57:58.234Z,19.80
2018-10-01T10:00:32.149Z,20.90
2018-10-01T10:03:00.301Z,21.30
2018-10-01T10:05:28.479Z,22.00
2018-10-01T10:07:56.814Z,21.80
2018-10-01T10:10:25.124Z,22.40
2018-10-01T10:12:53.325Z,22.70
2018-10-01T10:15:21.501Z,23.30
2018-10-01T10:17:49.775Z,23.10
2018-10-01T10:20:17.992Z,22.70
2018-10-01T10:22:46.292Z,22.70
2018-10-01T10:25:14.532Z,22.70
2018-10-01T10:27:43.470Z,22.30
2018-10-01T10:30:11.643Z,21.40
2018-10-01T10:32:39.855Z,20.40
2018-10-01T10:35:08.056Z,19.00
2018-10-01T10:37:36.160Z,17.90
2018-10-01T10:40:04.580Z,16.90
2018-10-01T10:45:01.324Z,15.60
2018-10-01T10:47:29.518Z,15.20
2018-10-01T10:49:58.541Z,14.90
2018-10-01T10:52:26.850Z,14.80
2018-10-01T10:54:55.018Z,14.80
2018-10-01T10:57:23.491Z,14.90
2018-10-01T10:59:52.320Z,15.00
2018-10-01T11:02:20.505Z,15.00
2018-10-01T11:04:48.681Z,14.90
2018-10-01T11:07:16.937Z,14.90
2018-10-01T11:09:46.071Z,14.80
2018-10-01T11:12:14.189Z,14.50
2018-10-01T11:14:42.388Z,14.30
2018-10-01T11:17:11.024Z,14.10
2018-10-01T11:19:39.292Z,14.00
2018-10-01T11:22:07.459Z,14.00
2018-10-01T11:24:35.831Z,13.90
2018-10-01T11:27:04.064Z,13.80
2018-10-01T11:29:33.559Z,13.90
2018-10-01T11:32:01.797Z,14.00
2018-10-01T11:34:30.833Z,14.10
2018-10-01T11:36:59.091Z,14.00
2018-10-01T11:39:27.258Z,13.90
2018-10-01T11:41:55.556Z,13.70
2018-10-01T11:44:23.687Z,13.60
2018-10-01T11:46:51.905Z,13.70
2018-10-01T11:49:20.856Z,13.80
2018-10-01T11:51:49.031Z,13.80
2018-10-01T11:54:17.289Z,14.00
2018-10-01T11:56:45.479Z,14.30
2018-10-01T11:59:13.793Z,14.60
2018-10-01T12:01:41.942Z,14.60
2018-10-01T12:04:10.233Z,14.70
2018-10-01T12:06:39.026Z,14.70
2018-10-01T12:09:10.196Z,14.70
2018-10-01T12:11:38.308Z,14.80
2018-10-01T12:14:06.554Z,14.50
2018-10-01T12:16:34.796Z,14.60
2018-10-01T12:19:03.249Z,14.60
2018-10-01T12:21:31.522Z,14.40
2018-10-01T12:24:00.610Z,14.30
2018-10-01T12:26:29.464Z,14.30
2018-10-01T12:28:57.699Z,14.30
2018-10-01T12:31:25.904Z,14.30
2018-10-01T12:33:54.255Z,14.40
2018-10-01T12:36:23.064Z,14.60
2018-10-01T12:38:51.344Z,14.60
2018-10-01T12:41:20.198Z,14.80
2018-10-01T12:43:48.464Z,14.70
2018-10-01T12:46:17.533Z,14.70
2018-10-01T12:48:45.988Z,14.50
2018-10-01T12:51:14.336Z,14.30
2018-10-01T12:53:42.565Z,14.20
2018-10-01T12:56:10.989Z,14.10
2018-10-01T12:58:39.125Z,14.00
2018-10-01T13:01:07.319Z,13.90
2018-10-01T13:03:35.484Z,13.90
2018-10-01T13:06:03.701Z,14.10
2018-10-01T13:08:31.791Z,14.10
2018-10-01T13:10:59.927Z,14.20
2018-10-01T13:13:28.188Z,14.30
2018-10-01T13:15:56.434Z,14.20
2018-10-01T13:18:24.667Z,14.30
2018-10-01T13:20:53.070Z,14.40
2018-10-01T13:23:22.077Z,14.40
2018-10-01T13:25:50.756Z,14.30
2018-10-01T13:28:18.949Z,14.20
2018-10-01T13:30:47.273Z,14.10
2018-10-01T13:33:15.503Z,14.10
2018-10-01T13:35:43.695Z,13.90
2018-10-01T13:38:12.001Z,13.80
2018-10-01T13:40:40.270Z,13.60
2018-10-01T13:43:08.433Z,13.60
2018-10-01T13:45:37.279Z,13.60
2018-10-01T13:48:05.628Z,13.60
2018-10-01T13:50:33.769Z,13.60
2018-10-01T13:53:01.926Z,13.60
2018-10-01T13:55:30.088Z,13.60
2018-10-01T13:57:59.049Z,13.70
2018-10-01T14:00:27.451Z,13.80
2018-10-01T14:02:55.616Z,13.90
2018-10-01T14:05:23.785Z,13.90
2018-10-01T14:07:51.969Z,13.80
2018-10-01T14:10:20.201Z,13.80
2018-10-01T14:12:48.455Z,13.80
2018-10-01T14:15:16.642Z,13.80
2018-10-01T14:17:44.853Z,13.90
2018-10-01T14:20:13.876Z,14.00
2018-10-01T14:22:42.143Z,14.00
2018-10-01T14:25:10.588Z,14.00
2018-10-01T14:27:39.351Z,14.10
2018-10-01T14:30:07.768Z,14.20
2018-10-01T14:32:37.153Z,14.40
2018-10-01T14:35:05.388Z,14.40
2018-10-01T14:37:33.600Z,14.60
2018-10-01T14:40:01.728Z,14.70
2018-10-01T14:42:29.976Z,14.70
2018-10-01T14:44:58.098Z,14.80
2018-10-01T14:47:26.226Z,14.70
2018-10-01T14:49:54.442Z,14.70
2018-10-01T14:52:22.654Z,14.60
2018-10-01T14:54:51.624Z,14.50
2018-10-01T14:57:19.768Z,14.60
2018-10-01T14:59:48.059Z,14.60
2018-10-01T15:02:16.219Z,14.70
2018-10-01T15:04:44.483Z,15.00
2018-10-01T15:07:12.675Z,15.10
2018-10-01T15:09:40.983Z,15.00
2018-10-01T15:12:09.209Z,14.80
2018-10-01T15:14:37.475Z,14.70
2018-10-01T15:17:05.703Z,14.70
2018-10-01T15:19:33.911Z,14.70
2018-10-01T15:22:02.185Z,14.60
2018-10-01T15:24:30.386Z,14.50
2018-10-01T15:26:58.473Z,14.50
2018-10-01T15:29:26.830Z,14.40
2018-10-01T15:31:54.990Z,14.30
2018-10-01T15:34:24.026Z,14.30
2018-10-01T15:36:52.183Z,14.20
2018-10-01T15:39:20.307Z,14.20
2018-10-01T15:41:48.651Z,14.00
2018-10-01T15:44:16.840Z,13.90
2018-10-01T15:46:45.992Z,13.80
2018-10-01T15:49:14.203Z,13.60
2018-10-01T15:51:42.341Z,13.60
2018-10-01T15:54:10.533Z,13.60
2018-10-01T15:56:39.531Z,13.60
2018-10-01T15:59:07.809Z,13.50
2018-10-01T16:01:35.982Z,13.60
2018-10-01T16:04:04.260Z,13.60
2018-10-01T16:06:32.499Z,13.50
2018-10-01T16:09:00.765Z,13.60
2018-10-01T16:11:29.088Z,13.50
2018-10-01T16:13:57.291Z,13.40
2018-10-01T16:16:25.959Z,13.20
2018-10-01T16:18:54.817Z,13.10
2018-10-01T16:21:23.853Z,12.90
2018-10-01T16:23:52.424Z,12.80
2018-10-01T16:26:20.579Z,12.80
2018-10-01T16:28:48.743Z,12.70
2018-10-01T16:31:17.096Z,12.60
2018-10-01T16:33:45.337Z,12.70
2018-10-01T16:36:13.623Z,12.60
2018-10-01T16:38:41.815Z,12.50
2018-10-01T16:41:10.011Z,12.40
2018-10-01T16:43:38.355Z,12.40
2018-10-01T16:46:06.615Z,12.30
2018-10-01T16:48:34.873Z,12.20
2018-10-01T16:51:03.073Z,12.10
2018-10-01T16:53:31.255Z,12.00
2018-10-01T16:55:59.459Z,11.90
2018-10-01T16:58:27.887Z,11.90
2018-10-01T17:00:56.140Z,11.80
2018-10-01T17:03:24.348Z,11.80
2018-10-01T17:05:58.831Z,11.70
2018-10-01T17:08:28.498Z,11.60
2018-10-01T17:10:56.890Z,11.60
2018-10-01T17:13:25.136Z,11.50
2018-10-01T17:15:54.856Z,11.50
2018-10-01T17:18:23.852Z,11.40
2018-10-01T17:20:52.198Z,11.40
2018-10-01T17:23:20.398Z,11.40
2018-10-01T17:25:49.136Z,11.40
2018-10-01T17:28:17.560Z,11.30
2018-10-01T17:30:45.715Z,11.30
2018-10-01T17:33:13.942Z,11.30
2018-10-01T17:35:42.198Z,11.30
2018-10-01T17:38:10.437Z,11.30
2018-10-01T17:40:39.234Z,11.30
2018-10-01T17:43:07.504Z,11.30
2018-10-01T17:45:35.778Z,11.30
2018-10-01T17:48:04.137Z,11.30
2018-10-01T17:50:32.584Z,11.20
2018-10-01T17:53:00.885Z,11.20
2018-10-01T17:55:29.101Z,11.10
2018-10-01T17:57:57.369Z,11.10
2018-10-01T18:00:25.720Z,11.10
2018-10-01T18:02:53.909Z,11.10
2018-10-01T18:05:22.108Z,11.00
2018-10-01T18:07:50.621Z,11.00
2018-10-01T18:10:18.811Z,10.90
2018-10-01T18:12:48.147Z,10.80
2018-10-01T18:15:16.362Z,10.80
2018-10-01T18:17:44.558Z,10.80
2018-10-01T18:20:12.939Z,10.80
2018-10-01T18:22:41.254Z,10.80
2018-10-01T18:25:09.541Z,10.80
2018-10-01T18:27:37.845Z,10.70
2018-10-01T18:30:06.682Z,10.70
2018-10-01T18:32:34.898Z,10.70
2018-10-01T18:35:03.351Z,10.60
2018-10-01T18:37:31.692Z,10.60
2018-10-01T18:40:00.629Z,10.60
2018-10-01T18:42:29.013Z,10.60
2018-10-01T18:44:57.231Z,10.50
2018-10-01T18:47:25.379Z,10.40
2018-10-01T18:49:53.588Z,10.50
2018-10-01T18:52:21.791Z,10.40
2018-10-01T18:54:50.097Z,10.40
2018-10-01T18:57:18.525Z,10.30
2018-10-01T18:59:46.820Z,10.20
2018-10-01T19:02:15.116Z,10.20
2018-10-01T19:04:43.362Z,10.10
2018-10-01T19:07:11.773Z,10.00
2018-10-01T19:09:40.075Z,9.90
2018-10-01T19:12:08.385Z,9.80
2018-10-01T19:14:36.562Z,9.80
2018-10-01T19:17:05.134Z,9.70
2018-10-01T19:19:33.326Z,9.70
2018-10-01T19:22:01.673Z,9.60
2018-10-01T19:24:30.688Z,9.60
2018-10-01T19:26:59.140Z,9.70
2018-10-01T19:29:27.277Z,9.70
2018-10-01T19:31:55.495Z,9.70
2018-10-01T19:34:23.824Z,9.60
2018-10-01T19:36:52.282Z,9.60
2018-10-01T19:39:20.747Z,9.60
2018-10-01T19:41:49.032Z,9.50
2018-10-01T19:44:17.173Z,9.40
2018-10-01T19:46:45.466Z,9.40
2018-10-01T19:49:13.745Z,9.40
2018-10-01T19:51:41.982Z,9.40
2018-10-01T19:54:10.157Z,9.40
2018-10-01T19:56:38.488Z,9.40
2018-10-01T19:59:07.399Z,9.50
2018-10-01T20:01:35.570Z,9.50
2018-10-01T20:04:04.461Z,9.50
2018-10-01T20:06:32.911Z,9.40
2018-10-01T20:09:01.323Z,9.50
2018-10-01T20:11:29.424Z,9.50
2018-10-01T20:13:57.635Z,9.50
2018-10-01T20:16:25.862Z,9.50
2018-10-01T20:18:54.473Z,9.40
2018-10-01T20:21:22.895Z,9.40
2018-10-01T20:23:51.069Z,9.40
2018-10-01T20:26:19.187Z,9.40
2018-10-01T20:28:47.517Z,9.40
2018-10-01T20:31:15.573Z,9.40
2018-10-01T20:33:43.813Z,9.30
2018-10-01T20:36:12.060Z,9.20
2018-10-01T20:38:40.219Z,9.10
2018-10-01T20:41:08.445Z,9.10
2018-10-01T20:43:36.679Z,9.00
2018-10-01T20:46:04.844Z,9.00
2018-10-01T20:48:33.154Z,8.90
2018-10-01T20:51:01.284Z,8.80
2018-10-01T20:53:29.526Z,8.80
2018-10-01T20:55:57.655Z,8.70
2018-10-01T20:58:25.774Z,8.70
2018-10-01T21:00:54.104Z,8.70
2018-10-01T21:03:22.402Z,8.60
2018-10-01T21:05:50.538Z,8.60
2018-10-01T21:08:18.728Z,8.50
2018-10-01T21:10:47.025Z,8.50
2018-10-01T21:13:15.219Z,8.50
2018-10-01T21:15:43.435Z,8.50
2018-10-01T21:18:11.675Z,8.40
2018-10-01T21:20:40.524Z,8.40
2018-10-01T21:23:08.735Z,8.30
2018-10-01T21:25:36.997Z,8.20
2018-10-01T21:28:05.344Z,8.20
2018-10-01T21:30:33.534Z,8.10
2018-10-01T21:33:01.738Z,8.10
2018-10-01T21:35:30.328Z,8.10
2018-10-01T21:37:58.494Z,8.00
2018-10-01T21:40:27.530Z,8.00
2018-10-01T21:42:55.978Z,8.00
2018-10-01T21:45:24.233Z,7.90
2018-10-01T21:47:52.511Z,7.80
2018-10-01T21:50:20.796Z,7.80
2018-10-01T21:52:48.948Z,7.90
2018-10-01T21:55:17.730Z,7.90
2018-10-01T21:57:46.584Z,7.80
2018-10-01T22:00:14.966Z,7.70
2018-10-01T22:02:43.194Z,7.70
2018-10-01T22:05:11.417Z,7.70
2018-10-01T22:07:39.606Z,7.70
2018-10-01T22:10:07.855Z,7.60
2018-10-01T22:12:36.080Z,7.60
2018-10-01T22:15:04.453Z,7.50
2018-10-01T22:17:32.611Z,7.50
2018-10-01T22:20:00.852Z,7.40
2018-10-01T22:22:29.028Z,7.40
2018-10-01T22:24:57.219Z,7.40
2018-10-01T22:27:25.576Z,7.40
2018-10-01T22:29:53.703Z,7.30
2018-10-01T22:32:21.919Z,7.20
2018-10-01T22:34:50.155Z,7.20
2018-10-01T22:37:18.419Z,7.20
2018-10-01T22:39:46.664Z,7.10
2018-10-01T22:42:14.934Z,7.10
2018-10-01T22:44:43.263Z,7.00
2018-10-01T22:47:12.287Z,7.00
2018-10-01T22:49:40.419Z,7.00
2018-10-01T22:52:08.615Z,7.00
2018-10-01T22:54:36.769Z,7.00
2018-10-01T22:57:05.350Z,7.00
2018-10-01T22:59:33.559Z,7.00
2018-10-01T23:02:01.879Z,6.90
2018-10-01T23:04:30.380Z,6.90
2018-10-01T23:06:59.335Z,6.90
2018-10-01T23:09:27.522Z,6.80
2018-10-01T23:11:55.829Z,6.80
2018-10-01T23:14:24.051Z,6.80
2018-10-01T23:16:52.203Z,6.80
2018-10-01T23:19:20.457Z,6.80
2018-10-01T23:21:48.735Z,6.80
2018-10-01T23:24:16.876Z,6.80
2018-10-01T23:26:45.024Z,6.80
2018-10-01T23:29:13.205Z,6.90
2018-10-01T23:31:41.383Z,7.00
2018-10-01T23:34:09.951Z,7.00
2018-10-01T23:36:38.063Z,7.00
2018-10-01T23:39:06.851Z,7.10
2018-10-01T23:41:35.115Z,7.20
2018-10-01T23:44:03.309Z,7.20
2018-10-01T23:46:32.176Z,7.30
2018-10-01T23:49:00.437Z,7.30
2018-10-01T23:51:28.727Z,7.30
2018-10-01T23:53:57.563Z,7.40
2018-10-01T23:56:25.852Z,7.50
2018-10-01T23:58:54.125Z,7.60
